F/V Mare Liberum — FVHW — position and weather

sailwx.info

Track history (hours):
 
Tides and Currents Weather Stations Pressure Air Temp Water Temp Dewpoint Dewpoint Depression Visibility Wind Speed Wind Dir Waves Ship Positions

F/V Mare Liberum

Last reported at 2014-Jul-28 08:33 UTC. Time now 2014-Jul-30 03:09 UTC.
Position N 46°30' W 001°47'.

Length 21 m.

Type: Fishing. MMSI: 227426000.

Date/timePositionNaut miles runAvg speedWind from/ knotsBaromVisibWave heightAir tempDewpointWater temp
2014-Jul-28 08:33N 46°30' W 001°47'0 0.0
2014-Jul-28 07:33N 46°30' W 001°47'0 0.0
2014-Jul-28 06:33N 46°30' W 001°47'0 0.0
2014-Jul-28 05:33N 46°30' W 001°47'0 0.0
2014-Jul-28 04:33N 46°30' W 001°47'0 0.0
2014-Jul-28 03:33N 46°30' W 001°47'0 0.2
2014-Jul-28 02:33N 46°30' W 001°48'3 3.4
2014-Jul-28 01:33N 46°30' W 001°53'7 6.5
2014-Jul-28 00:33N 46°34' W 001°59'7 6.7
2014-Jul-27 23:33N 46°39' W 002°06'24 3.4
2014-Jul-27 16:33N 47°01' W 002°18'0 0.0
2014-Jul-27 15:26N 47°01' W 002°18'0 0.0
2014-Jul-27 14:30N 47°01' W 002°18'0 0.0
2014-Jul-27 05:03N 47°01' W 002°18'64 2.0
2014-Jul-25 21:33N 46°17' W 003°25'2 2.3
2014-Jul-25 20:33N 46°18' W 003°28'2 2.0
2014-Jul-25 19:33N 46°18' W 003°26'0 0.1
2014-Jul-25 18:22N 46°18' W 003°26'0 0.0
2014-Jul-25 11:31N 46°18' W 003°26'1 0.5
2014-Jul-25 08:33N 46°16' W 003°27'4 0.2
2014-Jul-24 15:31N 46°17' W 003°21'9 1.4
2014-Jul-24 09:32N 46°17' W 003°33'1 0.0
2014-Jul-22 19:19N 46°16' W 003°33'  
Track history (hours):
 
Tides and Currents Weather Stations Pressure Air Temp Water Temp Dewpoint Dewpoint Depression Visibility Wind Speed Wind Dir Waves Ship Positions

F/V Mare Liberum

Last reported at 2014-Jul-28 08:33 UTC. Time now 2014-Jul-30 03:09 UTC.
Position N 46°30' W 001°47'.

Length 21 m.

Type: Fishing. MMSI: 227426000.

Date/timePositionNaut miles runAvg speedWind from/ knotsBaromVisibWave heightAir tempDewpointWater temp
2014-Jul-28 08:33N 46°30' W 001°47'0 0.0
2014-Jul-28 07:33N 46°30' W 001°47'0 0.0
2014-Jul-28 06:33N 46°30' W 001°47'0 0.0
2014-Jul-28 05:33N 46°30' W 001°47'0 0.0
2014-Jul-28 04:33N 46°30' W 001°47'0 0.0
2014-Jul-28 03:33N 46°30' W 001°47'0 0.2
2014-Jul-28 02:33N 46°30' W 001°48'3 3.4
2014-Jul-28 01:33N 46°30' W 001°53'7 6.5
2014-Jul-28 00:33N 46°34' W 001°59'7 6.7
2014-Jul-27 23:33N 46°39' W 002°06'24 3.4
2014-Jul-27 16:33N 47°01' W 002°18'0 0.0
2014-Jul-27 15:26N 47°01' W 002°18'0 0.0
2014-Jul-27 14:30N 47°01' W 002°18'0 0.0
2014-Jul-27 05:03N 47°01' W 002°18'64 2.0
2014-Jul-25 21:33N 46°17' W 003°25'2 2.3
2014-Jul-25 20:33N 46°18' W 003°28'2 2.0
2014-Jul-25 19:33N 46°18' W 003°26'0 0.1
2014-Jul-25 18:22N 46°18' W 003°26'0 0.0
2014-Jul-25 11:31N 46°18' W 003°26'1 0.5
2014-Jul-25 08:33N 46°16' W 003°27'4 0.2
2014-Jul-24 15:31N 46°17' W 003°21'9 1.4
2014-Jul-24 09:32N 46°17' W 003°33'1 0.0
2014-Jul-22 19:19N 46°16' W 003°33'  

Dump ship's entire track history